createdAt,value
2018-02-09T00:02:16.742Z,235.63
2018-02-09T00:04:46.530Z,205.63
2018-02-09T00:07:15.698Z,199.20
2018-02-09T00:09:44.838Z,199.50
2018-02-09T00:12:14.009Z,200.50
2018-02-09T00:14:43.163Z,218.70
2018-02-09T00:17:12.315Z,206.40
2018-02-09T00:19:41.878Z,203.43
2018-02-09T00:22:12.919Z,196.03
2018-02-09T00:24:42.062Z,193.93
2018-02-09T00:27:11.206Z,197.37
2018-02-09T00:29:40.353Z,209.40
2018-02-09T00:32:09.561Z,201.80
2018-02-09T00:34:38.678Z,204.83
2018-02-09T00:37:07.813Z,246.27
2018-02-09T00:39:36.987Z,212.97
2018-02-09T00:42:06.165Z,204.57
2018-02-09T00:44:35.317Z,201.97
2018-02-09T00:47:04.484Z,236.30
2018-02-09T00:49:33.649Z,373.03
2018-02-09T00:52:02.784Z,212.77
2018-02-09T00:54:31.929Z,202.80
2018-02-09T00:57:01.107Z,206.57
2018-02-09T00:59:30.249Z,197.20
2018-02-09T01:01:59.537Z,201.77
2018-02-09T01:04:28.733Z,202.27
2018-02-09T01:06:57.869Z,207.47
2018-02-09T01:09:27.047Z,215.97
2018-02-09T01:11:56.189Z,205.70
2018-02-09T01:14:25.338Z,209.70
2018-02-09T01:16:54.498Z,217.77
2018-02-09T01:19:23.653Z,206.93
2018-02-09T01:21:52.969Z,199.23
2018-02-09T01:24:22.134Z,203.57
2018-02-09T01:26:51.413Z,221.07
2018-02-09T01:29:20.558Z,194.50
2018-02-09T01:31:49.748Z,200.70
2018-02-09T01:34:18.889Z,191.73
2018-02-09T01:36:48.026Z,195.53
2018-02-09T01:39:17.187Z,189.20
2018-02-09T01:41:46.329Z,202.07
2018-02-09T01:44:15.477Z,192.43
2018-02-09T01:46:44.657Z,208.63
2018-02-09T01:49:13.917Z,188.27
2018-02-09T01:51:43.050Z,195.73
2018-02-09T01:54:12.233Z,183.43
2018-02-09T01:56:41.388Z,180.70
2018-02-09T01:59:10.541Z,186.50
2018-02-09T02:01:39.697Z,190.43
2018-02-09T02:04:08.896Z,186.33
2018-02-09T02:06:38.040Z,191.33
2018-02-09T02:09:07.189Z,185.83
2018-02-09T02:11:36.366Z,186.63
2018-02-09T02:14:05.541Z,186.00
2018-02-09T02:16:34.682Z,193.83
2018-02-09T02:19:03.887Z,191.00
2018-02-09T02:21:33.412Z,183.10
2018-02-09T02:24:02.990Z,194.07
2018-02-09T02:26:32.153Z,191.87
2018-02-09T02:29:01.322Z,178.70
2018-02-09T02:31:30.522Z,181.23
2018-02-09T02:33:59.653Z,189.17
2018-02-09T02:36:28.794Z,202.47
2018-02-09T02:38:57.997Z,196.23
2018-02-09T02:41:27.134Z,203.70
2018-02-09T02:43:56.271Z,191.47
2018-02-09T02:46:25.429Z,190.23
2018-02-09T02:48:54.589Z,192.90
2018-02-09T02:51:23.779Z,194.40
2018-02-09T02:53:52.943Z,184.23
2018-02-09T02:56:22.082Z,192.27
2018-02-09T02:58:51.221Z,195.77
2018-02-09T03:01:20.412Z,192.70
2018-02-09T03:03:49.547Z,187.93
2018-02-09T03:06:18.736Z,191.43
2018-02-09T03:08:47.880Z,191.40
2018-02-09T03:11:17.009Z,196.23
2018-02-09T03:13:46.199Z,195.70
2018-02-09T03:16:15.340Z,195.80
2018-02-09T03:18:44.500Z,189.10
2018-02-09T03:21:13.654Z,197.83
2018-02-09T03:23:42.791Z,183.83
2018-02-09T03:26:12.474Z,197.07
2018-02-09T03:28:41.624Z,190.67
2018-02-09T03:31:10.758Z,183.60
2018-02-09T03:33:39.922Z,177.27
2018-02-09T03:36:09.060Z,178.80
2018-02-09T03:38:38.188Z,177.90
2018-02-09T03:41:07.350Z,194.43
2018-02-09T03:43:36.485Z,189.17
2018-02-09T03:46:05.641Z,187.60
2018-02-09T03:48:34.817Z,196.03
2018-02-09T03:51:03.948Z,201.93
2018-02-09T03:53:33.084Z,190.00
2018-02-09T03:56:02.244Z,196.10
2018-02-09T03:58:31.420Z,200.20
2018-02-09T04:01:00.561Z,199.80
2018-02-09T04:03:29.705Z,196.97
2018-02-09T04:05:58.873Z,194.80
2018-02-09T04:08:28.064Z,197.63
2018-02-09T04:10:57.213Z,182.00
2018-02-09T04:13:26.349Z,196.70
2018-02-09T04:15:55.531Z,187.90
2018-02-09T04:18:24.682Z,185.03
2018-02-09T04:20:53.945Z,194.10
2018-02-09T04:23:23.089Z,192.00
2018-02-09T04:25:52.219Z,185.10
2018-02-09T04:28:21.404Z,199.53
2018-02-09T04:30:50.550Z,184.70
2018-02-09T04:33:19.735Z,199.33
2018-02-09T04:35:48.877Z,187.33
2018-02-09T04:38:18.034Z,194.80
2018-02-09T04:40:47.200Z,191.53
2018-02-09T04:43:16.347Z,184.67
2018-02-09T04:45:45.502Z,191.03
2018-02-09T04:48:14.681Z,184.57
2018-02-09T04:50:44.303Z,182.53
2018-02-09T04:53:13.446Z,191.93
2018-02-09T04:55:42.591Z,184.80
2018-02-09T04:58:11.794Z,190.43
2018-02-09T05:00:40.939Z,195.10
2018-02-09T05:03:10.077Z,180.67
2018-02-09T05:05:39.250Z,193.23
2018-02-09T05:08:08.391Z,198.13
2018-02-09T05:10:37.525Z,187.10
2018-02-09T05:13:06.721Z,187.43
2018-02-09T05:15:35.921Z,181.60
2018-02-09T05:18:05.084Z,181.33
2018-02-09T05:20:34.222Z,191.97
2018-02-09T05:23:03.814Z,185.87
2018-02-09T05:25:32.970Z,193.27
2018-02-09T05:28:02.117Z,176.87
2018-02-09T05:30:31.290Z,182.17
2018-02-09T05:33:00.438Z,194.23
2018-02-09T05:35:29.594Z,190.73
2018-02-09T05:37:58.781Z,182.37
2018-02-09T05:40:27.986Z,196.13
2018-02-09T05:42:57.160Z,184.83
2018-02-09T05:45:26.334Z,179.37
2018-02-09T05:47:55.468Z,196.07
2018-02-09T05:50:24.612Z,190.67
2018-02-09T05:52:53.792Z,188.67
2018-02-09T05:55:22.931Z,190.27
2018-02-09T05:57:52.097Z,201.93
2018-02-09T06:00:21.229Z,182.30
2018-02-09T06:02:50.372Z,183.43
2018-02-09T06:05:19.543Z,192.33
2018-02-09T06:07:48.715Z,188.77
2018-02-09T06:10:17.866Z,189.17
2018-02-09T06:12:47.061Z,186.73
2018-02-09T06:15:16.195Z,186.70
2018-02-09T06:17:45.340Z,187.90
2018-02-09T06:20:14.500Z,185.13
2018-02-09T06:22:43.641Z,189.33
2018-02-09T06:25:12.824Z,183.53
2018-02-09T06:27:42.012Z,183.13
2018-02-09T06:30:11.157Z,183.53
2018-02-09T06:32:40.298Z,186.27
2018-02-09T06:35:09.917Z,180.97
2018-02-09T06:37:39.045Z,192.10
2018-02-09T06:40:08.208Z,202.23
2018-02-09T06:42:37.390Z,202.97
2018-02-09T06:45:06.538Z,190.93
2018-02-09T06:47:35.688Z,193.17
2018-02-09T06:50:04.873Z,200.87
2018-02-09T06:52:34.460Z,198.53
2018-02-09T06:55:03.611Z,194.67
2018-02-09T06:57:33.107Z,187.37
2018-02-09T07:00:02.251Z,180.87
2018-02-09T07:02:31.394Z,209.47
2018-02-09T07:05:00.578Z,201.60
2018-02-09T07:07:29.710Z,203.13
2018-02-09T07:09:58.900Z,197.50
2018-02-09T07:12:28.090Z,180.97
2018-02-09T07:14:57.283Z,182.90
2018-02-09T07:17:26.421Z,194.43
2018-02-09T07:19:55.573Z,186.63
2018-02-09T07:22:24.724Z,186.97
2018-02-09T07:24:53.870Z,188.53
2018-02-09T07:27:23.049Z,196.90
2018-02-09T07:29:52.209Z,192.33
2018-02-09T07:32:21.380Z,192.83
2018-02-09T07:34:50.512Z,192.50
2018-02-09T07:37:19.649Z,198.43
2018-02-09T07:39:48.799Z,193.93
2018-02-09T07:42:17.943Z,185.27
2018-02-09T07:44:47.418Z,198.97
2018-02-09T07:47:16.551Z,188.80
2018-02-09T07:49:45.696Z,186.50
2018-02-09T07:52:14.878Z,188.23
2018-02-09T07:54:44.193Z,182.77
2018-02-09T07:57:13.344Z,178.67
2018-02-09T07:59:42.525Z,175.97
2018-02-09T08:02:11.704Z,178.00
2018-02-09T08:04:40.841Z,186.63
2018-02-09T08:07:09.987Z,179.93
2018-02-09T08:09:39.178Z,175.13
2018-02-09T08:12:08.642Z,176.27
2018-02-09T08:14:37.784Z,172.30
2018-02-09T08:17:06.937Z,194.20
2018-02-09T08:19:36.108Z,179.77
2018-02-09T08:22:05.261Z,178.87
2018-02-09T08:24:34.395Z,173.73
2018-02-09T08:27:03.642Z,177.93
2018-02-09T08:29:32.786Z,170.93
2018-02-09T08:32:01.926Z,174.50
2018-02-09T08:34:31.101Z,181.93
2018-02-09T08:37:00.241Z,189.37
2018-02-09T08:39:29.376Z,191.40
2018-02-09T08:41:58.631Z,179.23
2018-02-09T08:44:27.790Z,187.87
2018-02-09T08:46:56.945Z,177.13
2018-02-09T08:49:26.094Z,181.13
2018-02-09T08:51:55.264Z,180.60
2018-02-09T08:54:24.401Z,178.80
2018-02-09T08:56:53.542Z,187.67
2018-02-09T08:59:22.744Z,182.53
2018-02-09T09:01:51.889Z,182.73
2018-02-09T09:04:21.047Z,170.10
2018-02-09T09:06:50.246Z,173.33
2018-02-09T09:09:19.482Z,177.60
2018-02-09T09:11:48.633Z,189.00
2018-02-09T09:14:17.819Z,183.87
2018-02-09T09:16:47.364Z,181.20
2018-02-09T09:19:16.491Z,170.43
2018-02-09T09:21:45.633Z,177.27
2018-02-09T09:24:14.817Z,175.80
2018-02-09T09:26:43.973Z,165.23
2018-02-09T09:29:13.125Z,173.00
2018-02-09T09:31:42.303Z,178.60
2018-02-09T09:34:11.432Z,172.10
2018-02-09T09:36:40.572Z,188.67
2018-02-09T09:39:09.754Z,182.17
2018-02-09T09:41:38.893Z,169.90
2018-02-09T09:44:08.044Z,155.17
2018-02-09T09:46:37.246Z,181.90
2018-02-09T09:49:06.403Z,175.67
2018-02-09T09:51:35.601Z,175.40
2018-02-09T09:54:04.775Z,184.83
2018-02-09T09:56:33.919Z,191.37
2018-02-09T09:59:03.057Z,171.93
2018-02-09T10:01:32.220Z,178.13
2018-02-09T10:04:01.362Z,180.77
2018-02-09T10:06:30.526Z,179.03
2018-02-09T10:08:59.693Z,169.67
2018-02-09T10:11:28.823Z,159.83
2018-02-09T10:13:57.962Z,154.43
2018-02-09T10:16:27.134Z,152.10
2018-02-09T10:18:56.326Z,153.70
2018-02-09T10:21:25.470Z,171.80
2018-02-09T10:23:54.609Z,163.70
2018-02-09T10:26:23.782Z,175.90
2018-02-09T10:28:52.919Z,162.63
2018-02-09T10:31:22.082Z,157.30
2018-02-09T10:33:51.225Z,151.97
2018-02-09T10:36:20.364Z,159.77
2018-02-09T10:38:49.561Z,174.90
2018-02-09T10:41:18.706Z,165.07
2018-02-09T10:43:47.861Z,160.57
2018-02-09T10:46:17.038Z,164.53
2018-02-09T10:48:46.175Z,153.63
2018-02-09T10:51:15.317Z,167.00
2018-02-09T10:53:44.485Z,153.97
2018-02-09T10:56:13.681Z,157.20
2018-02-09T10:58:42.888Z,163.00
2018-02-09T11:01:17.860Z,159.97
2018-02-09T11:03:47.042Z,157.13
2018-02-09T11:06:16.184Z,159.13
2018-02-09T11:08:45.354Z,159.17
2018-02-09T11:11:17.033Z,157.93
2018-02-09T11:13:46.208Z,153.57
2018-02-09T11:16:15.339Z,155.53
2018-02-09T11:18:44.473Z,149.50
2018-02-09T11:21:13.650Z,155.27
2018-02-09T11:23:42.794Z,153.80
2018-02-09T11:26:11.941Z,156.30
2018-02-09T11:28:41.509Z,157.43
2018-02-09T11:31:10.670Z,155.47
2018-02-09T11:33:39.811Z,156.37
2018-02-09T11:36:09.044Z,155.50
2018-02-09T11:38:38.190Z,162.83
2018-02-09T11:41:07.330Z,161.47
2018-02-09T11:43:36.500Z,157.67
2018-02-09T11:46:05.642Z,152.73
2018-02-09T11:48:34.790Z,149.67
2018-02-09T11:51:03.969Z,154.27
2018-02-09T11:53:33.110Z,160.30
2018-02-09T11:56:02.275Z,163.87
2018-02-09T11:58:31.451Z,157.60
2018-02-09T12:01:00.650Z,150.50
2018-02-09T12:03:29.788Z,151.67
2018-02-09T12:05:59.297Z,147.00
2018-02-09T12:08:28.436Z,152.13
2018-02-09T12:10:57.605Z,150.77
2018-02-09T12:13:27.078Z,147.90
2018-02-09T12:15:56.224Z,148.90
2018-02-09T12:18:25.373Z,153.23
2018-02-09T12:20:54.952Z,144.07
2018-02-09T12:23:24.101Z,149.43
2018-02-09T12:25:53.254Z,146.33
2018-02-09T12:28:22.439Z,149.50
2018-02-09T12:30:51.617Z,150.27
2018-02-09T12:33:20.771Z,152.07
2018-02-09T12:35:49.960Z,147.07
2018-02-09T12:38:19.122Z,138.90
2018-02-09T12:40:48.335Z,139.60
2018-02-09T12:43:17.514Z,155.57
2018-02-09T12:45:46.717Z,141.23
2018-02-09T12:48:15.866Z,148.97
2018-02-09T12:50:45.035Z,141.43
2018-02-09T12:53:14.205Z,145.37
2018-02-09T12:55:43.359Z,146.60
2018-02-09T12:58:12.508Z,141.30
2018-02-09T13:00:41.692Z,145.77
2018-02-09T13:03:10.827Z,142.97
2018-02-09T13:05:39.989Z,148.53
2018-02-09T13:08:09.237Z,143.37
2018-02-09T13:10:38.379Z,150.63
2018-02-09T13:13:07.531Z,163.00
2018-02-09T13:15:36.720Z,147.00
2018-02-09T13:18:05.865Z,141.07
2018-02-09T13:20:34.996Z,150.10
2018-02-09T13:23:10.321Z,161.47
2018-02-09T13:25:39.465Z,144.43
2018-02-09T13:28:09.417Z,151.20
2018-02-09T13:30:38.646Z,141.27
2018-02-09T13:33:13.700Z,149.77
2018-02-09T13:35:42.878Z,149.40
2018-02-09T13:38:12.014Z,143.40
2018-02-09T13:40:41.341Z,141.40
2018-02-09T13:43:10.806Z,149.97
2018-02-09T13:45:40.017Z,155.40
2018-02-09T13:48:09.235Z,146.20
2018-02-09T13:50:38.417Z,143.20
2018-02-09T13:53:07.581Z,140.43
2018-02-09T13:55:36.774Z,141.23
2018-02-09T13:58:05.910Z,144.37
2018-02-09T14:00:35.058Z,151.00
2018-02-09T14:03:05.187Z,141.63
2018-02-09T14:05:34.332Z,161.53
2018-02-09T14:08:03.477Z,148.70
2018-02-09T14:10:32.654Z,144.20
2018-02-09T14:13:02.161Z,150.67
2018-02-09T14:15:31.314Z,151.07
2018-02-09T14:18:00.457Z,156.40
2018-02-09T14:20:29.629Z,154.27
2018-02-09T14:22:58.877Z,160.87
2018-02-09T14:25:28.017Z,160.73
2018-02-09T14:27:57.173Z,153.30
2018-02-09T14:30:26.406Z,151.50
2018-02-09T14:32:55.539Z,160.47
2018-02-09T14:35:24.718Z,159.13
2018-02-09T14:37:53.904Z,153.33
2018-02-09T14:40:23.066Z,165.70
2018-02-09T14:42:52.252Z,145.53
2018-02-09T14:45:21.406Z,155.37
2018-02-09T14:47:50.553Z,155.90
2018-02-09T14:50:19.699Z,161.47
2018-02-09T14:52:48.839Z,157.37
2018-02-09T14:55:18.462Z,153.10
2018-02-09T14:57:47.618Z,152.13
2018-02-09T15:00:16.785Z,155.20
2018-02-09T15:02:45.967Z,162.67
2018-02-09T15:05:15.106Z,157.20
2018-02-09T15:07:44.260Z,138.90
2018-02-09T15:10:13.443Z,159.27
2018-02-09T15:12:42.596Z,153.20
2018-02-09T15:15:11.756Z,152.03
2018-02-09T15:17:40.924Z,145.30
2018-02-09T15:20:10.077Z,155.27
2018-02-09T15:22:39.241Z,159.67
2018-02-09T15:25:08.401Z,150.63
2018-02-09T15:27:37.528Z,151.57
2018-02-09T15:30:06.721Z,146.10
2018-02-09T15:32:35.869Z,158.40
2018-02-09T15:35:05.023Z,150.37
2018-02-09T15:37:34.192Z,148.23
2018-02-09T15:40:03.330Z,151.53
2018-02-09T15:42:32.523Z,138.83
2018-02-09T15:45:01.673Z,158.00
2018-02-09T15:47:30.809Z,142.43
2018-02-09T15:50:00.484Z,150.80
2018-02-09T15:52:29.633Z,149.10
2018-02-09T15:54:58.784Z,151.00
2018-02-09T15:57:27.957Z,149.17
2018-02-09T15:59:57.102Z,153.27
2018-02-09T16:02:26.247Z,139.93
2018-02-09T16:04:55.418Z,149.43
2018-02-09T16:07:24.577Z,157.30
2018-02-09T16:09:53.724Z,146.00
2018-02-09T16:12:22.894Z,146.27
2018-02-09T16:14:52.074Z,146.40
2018-02-09T16:17:21.220Z,141.73
2018-02-09T16:19:50.361Z,146.57
2018-02-09T16:22:19.527Z,141.47
2018-02-09T16:24:48.674Z,147.00
2018-02-09T16:27:17.837Z,145.47
2018-02-09T16:29:47.042Z,146.43
2018-02-09T16:32:16.186Z,150.33
2018-02-09T16:34:45.329Z,145.20
2018-02-09T16:37:14.504Z,146.43
2018-02-09T16:39:43.637Z,147.87
2018-02-09T16:42:12.837Z,151.33
2018-02-09T16:44:42.028Z,148.77
2018-02-09T16:47:11.171Z,153.83
2018-02-09T16:49:40.809Z,141.97
2018-02-09T16:52:09.977Z,154.40
2018-02-09T16:54:39.127Z,140.80
2018-02-09T16:57:08.306Z,150.00
2018-02-09T16:59:37.487Z,148.30
2018-02-09T17:02:06.641Z,144.00
2018-02-09T17:04:35.834Z,146.50
2018-02-09T17:07:04.967Z,152.43
2018-02-09T17:09:34.095Z,145.67
2018-02-09T17:12:03.594Z,149.83
2018-02-09T17:14:32.752Z,152.67
2018-02-09T17:17:01.893Z,153.77
2018-02-09T17:19:31.089Z,149.57
2018-02-09T17:22:00.238Z,147.33
2018-02-09T17:24:29.390Z,141.50
2018-02-09T17:26:58.565Z,160.50
2018-02-09T17:29:27.718Z,159.30
2018-02-09T17:31:56.885Z,150.03
2018-02-09T17:34:26.057Z,158.10
2018-02-09T17:36:55.193Z,141.17
2018-02-09T17:39:24.339Z,169.77
2018-02-09T17:41:53.483Z,154.73
2018-02-09T17:44:22.673Z,156.07
2018-02-09T17:46:51.911Z,160.57
2018-02-09T17:49:21.056Z,158.30
2018-02-09T17:51:50.193Z,164.17
2018-02-09T17:54:19.400Z,153.23
2018-02-09T17:56:48.546Z,155.77
2018-02-09T17:59:17.778Z,163.53
2018-02-09T18:01:46.944Z,173.37
2018-02-09T18:04:16.107Z,174.80
2018-02-09T18:06:45.285Z,167.90
2018-02-09T18:09:14.468Z,160.07
2018-02-09T18:11:43.618Z,159.43
2018-02-09T18:14:12.763Z,146.70
2018-02-09T18:16:41.944Z,144.77
2018-02-09T18:19:11.079Z,158.80
2018-02-09T18:21:40.233Z,165.23
2018-02-09T18:24:09.410Z,163.00
2018-02-09T18:26:38.568Z,168.13
2018-02-09T18:29:07.700Z,171.23
2018-02-09T18:31:36.926Z,167.70
2018-02-09T18:34:06.071Z,155.30
2018-02-09T18:36:35.224Z,162.40
2018-02-09T18:39:04.422Z,163.23
2018-02-09T18:41:33.570Z,162.10
2018-02-09T18:44:02.718Z,153.30
2018-02-09T18:46:31.908Z,154.07
2018-02-09T18:49:01.074Z,163.07
2018-02-09T18:51:30.217Z,159.83
2018-02-09T18:53:59.410Z,164.77
2018-02-09T18:56:28.549Z,162.17
2018-02-09T18:58:57.688Z,161.53
2018-02-09T19:01:26.864Z,165.83
2018-02-09T19:03:56.074Z,161.30
2018-02-09T19:06:25.180Z,176.43
2018-02-09T19:08:54.369Z,161.23
2018-02-09T19:11:23.541Z,155.53
2018-02-09T19:13:52.713Z,163.97
2018-02-09T19:16:21.873Z,162.77
2018-02-09T19:18:51.044Z,156.97
2018-02-09T19:21:20.217Z,153.10
2018-02-09T19:23:49.358Z,165.23
2018-02-09T19:26:18.525Z,158.90
2018-02-09T19:28:47.686Z,154.33
2018-02-09T19:31:16.851Z,177.03
2018-02-09T19:33:46.013Z,164.27
2018-02-09T19:36:15.150Z,161.83
2018-02-09T19:38:44.317Z,150.93
2018-02-09T19:41:13.509Z,158.17
2018-02-09T19:43:42.650Z,164.57
2018-02-09T19:46:11.800Z,166.37
2018-02-09T19:48:40.966Z,151.23
2018-02-09T19:51:10.114Z,159.87
2018-02-09T19:53:39.309Z,167.50
2018-02-09T19:56:08.452Z,173.83
2018-02-09T19:58:37.592Z,166.07
2018-02-09T20:01:06.811Z,169.80
2018-02-09T20:03:35.972Z,154.67
2018-02-09T20:06:05.125Z,162.43
2018-02-09T20:08:34.271Z,170.97
2018-02-09T20:11:03.453Z,171.43
2018-02-09T20:13:32.591Z,153.47
2018-02-09T20:16:01.754Z,150.23
2018-02-09T20:18:30.930Z,154.93
2018-02-09T20:21:00.077Z,168.90
2018-02-09T20:23:29.273Z,155.53
2018-02-09T20:25:58.459Z,150.93
2018-02-09T20:28:27.621Z,167.77
2018-02-09T20:30:56.805Z,167.90
2018-02-09T20:33:26.301Z,169.07
2018-02-09T20:35:55.469Z,159.13
2018-02-09T20:38:24.620Z,157.80
2018-02-09T20:40:53.810Z,159.97
2018-02-09T20:43:22.964Z,148.87
2018-02-09T20:45:52.101Z,147.73
2018-02-09T20:48:21.313Z,158.37
2018-02-09T20:50:50.466Z,158.43
2018-02-09T20:53:19.601Z,171.50
2018-02-09T20:55:48.803Z,161.70
2018-02-09T20:58:17.949Z,163.70
2018-02-09T21:00:47.103Z,149.33
2018-02-09T21:03:16.321Z,158.23
2018-02-09T21:05:45.454Z,159.90
2018-02-09T21:08:14.629Z,154.07
2018-02-09T21:10:43.811Z,156.83
2018-02-09T21:13:13.041Z,155.80
2018-02-09T21:15:42.351Z,151.50
2018-02-09T21:18:11.521Z,152.00
2018-02-09T21:20:40.659Z,144.60
2018-02-09T21:23:09.812Z,149.77
2018-02-09T21:25:39.345Z,161.70
2018-02-09T21:28:08.482Z,168.20
2018-02-09T21:30:37.635Z,170.03
2018-02-09T21:33:06.793Z,164.93
2018-02-09T21:35:35.951Z,167.97
2018-02-09T21:38:05.077Z,158.10
2018-02-09T21:40:34.253Z,159.97
2018-02-09T21:43:03.459Z,161.37
2018-02-09T21:45:32.609Z,153.53
2018-02-09T21:48:01.762Z,155.87
2018-02-09T21:50:30.933Z,152.63
2018-02-09T21:53:00.224Z,148.40
2018-02-09T21:55:29.371Z,149.93
2018-02-09T21:57:58.953Z,154.93
2018-02-09T22:00:28.115Z,154.93
2018-02-09T22:02:57.267Z,158.03
2018-02-09T22:05:26.426Z,151.27
2018-02-09T22:07:55.602Z,152.80
2018-02-09T22:10:24.789Z,172.43
2018-02-09T22:12:53.927Z,155.60
2018-02-09T22:15:23.180Z,163.00
2018-02-09T22:17:52.328Z,166.30
2018-02-09T22:20:21.520Z,166.37
2018-02-09T22:22:50.704Z,162.17
2018-02-09T22:25:19.906Z,164.57
2018-02-09T22:27:49.069Z,163.93
2018-02-09T22:30:18.254Z,160.30
2018-02-09T22:32:47.416Z,162.40
2018-02-09T22:35:16.747Z,165.83
2018-02-09T22:37:45.955Z,163.13
2018-02-09T22:40:15.112Z,171.60
2018-02-09T22:42:44.289Z,157.57
2018-02-09T22:45:13.437Z,164.53
2018-02-09T22:47:42.610Z,168.30
2018-02-09T22:50:11.760Z,163.90
2018-02-09T22:52:40.893Z,162.43
2018-02-09T22:55:10.101Z,164.10
2018-02-09T22:57:39.365Z,178.20
2018-02-09T23:00:08.745Z,165.00
2018-02-09T23:02:37.986Z,181.43
2018-02-09T23:05:07.538Z,157.43
2018-02-09T23:07:36.676Z,159.73
2018-02-09T23:10:05.818Z,155.03
2018-02-09T23:12:34.986Z,158.23
2018-02-09T23:15:04.130Z,157.73
2018-02-09T23:17:33.270Z,149.23
2018-02-09T23:20:02.460Z,156.40
2018-02-09T23:22:32.005Z,151.90
2018-02-09T23:25:01.143Z,147.33
2018-02-09T23:27:30.326Z,150.60
2018-02-09T23:29:59.460Z,149.87
2018-02-09T23:32:28.603Z,150.10
2018-02-09T23:34:58.068Z,150.57
2018-02-09T23:37:27.258Z,159.83
2018-02-09T23:39:56.425Z,164.17
2018-02-09T23:42:25.772Z,156.43
2018-02-09T23:44:55.001Z,162.30
2018-02-09T23:47:24.145Z,153.37
2018-02-09T23:49:53.327Z,160.07
2018-02-09T23:52:22.473Z,160.80
2018-02-09T23:54:51.625Z,152.80
2018-02-09T23:57:20.817Z,150.87
2018-02-09T23:59:49.965Z,152.60
